Time;durP1;ratioP1;P1;durP2;ratioP2;P2;SDS_P1;SDS_P2;PMS_P1;PMS_P2;Temp;Humidity;BMP_temperature;BMP_pressure;BME280_temperature;BME280_humidity;BME280_pressure;Samples;Min_cycle;Max_cycle;Signal;HPM_P1;HPM_P2
2022/10/29 00:01:47;;;;;;;5.60;2.63;;;22.50;58.40;;;;;;5055592;28;20417;-51
2022/10/29 00:04:13;;;;;;;5.40;2.40;;;22.50;58.40;;;;;;5043442;28;20052;-50
2022/10/29 00:06:38;;;;;;;6.63;2.50;;;22.50;58.40;;;;;;5038417;28;20030;-48
2022/10/29 00:09:04;;;;;;;6.43;2.65;;;22.50;58.40;;;;;;5052835;28;20099;-46
2022/10/29 00:11:30;;;;;;;5.60;2.55;;;22.50;59.00;;;;;;5048473;28;20369;-47
2022/10/29 00:13:58;;;;;;;4.40;2.20;;;22.50;58.40;;;;;;5037869;28;20037;-50
2022/10/29 00:16:33;;;;;;;5.28;2.33;;;22.50;58.40;;;;;;5037665;28;20107;-48
2022/10/29 00:18:59;;;;;;;5.00;2.63;;;22.50;58.40;;;;;;5037735;28;20357;-47
2022/10/29 00:21:25;;;;;;;6.07;2.00;;;22.50;58.40;;;;;;5036468;28;20033;-47
2022/10/29 00:23:52;;;;;;;4.13;2.35;;;22.50;58.40;;;;;;5036839;28;20025;-46
2022/10/29 00:26:20;;;;;;;4.85;2.15;;;22.50;58.40;;;;;;5037747;28;20040;-47
2022/10/29 00:28:47;;;;;;;6.43;2.30;;;22.40;58.30;;;;;;5036834;28;20116;-46
2022/10/29 00:31:17;;;;;;;4.70;2.50;;;22.50;58.30;;;;;;5036341;28;20033;-46
2022/10/29 00:33:45;;;;;;;3.25;1.85;;;22.40;58.30;;;;;;5036891;28;20033;-49
2022/10/29 00:36:13;;;;;;;5.25;2.72;;;22.40;58.20;;;;;;5036062;28;20112;-49
2022/10/29 00:38:39;;;;;;;5.60;2.40;;;22.40;58.20;;;;;;5036838;28;20036;-45
2022/10/29 00:41:07;;;;;;;4.93;2.13;;;22.40;58.20;;;;;;5035929;28;20033;-45
2022/10/29 00:43:35;;;;;;;6.25;2.42;;;22.40;58.10;;;;;;5035476;28;20080;-49
2022/10/29 00:46:03;;;;;;;5.35;2.33;;;22.40;58.10;;;;;;5037041;28;20029;-48
2022/10/29 00:48:34;;;;;;;6.00;2.40;;;22.40;58.10;;;;;;5037107;28;20051;-47
2022/10/29 00:51:04;;;;;;;5.95;2.40;;;22.40;58.10;;;;;;5035483;28;20068;-45
2022/10/29 00:53:33;;;;;;;5.40;2.65;;;22.40;58.10;;;;;;5037026;28;20034;-46
2022/10/29 00:56:00;;;;;;;7.07;2.33;;;22.40;58.10;;;;;;5036976;28;20127;-47
2022/10/29 00:58:27;;;;;;;4.20;2.33;;;22.40;58.10;;;;;;5019337;28;20029;-49
2022/10/29 01:00:53;;;;;;;4.82;2.17;;;22.40;58.10;;;;;;5035773;28;20033;-48
2022/10/29 01:03:18;;;;;;;5.20;2.10;;;22.40;58.10;;;;;;5036467;28;20030;-48
2022/10/29 01:05:45;;;;;;;5.93;2.28;;;22.40;58.10;;;;;;5036881;28;20364;-51
2022/10/29 01:08:12;;;;;;;4.88;2.20;;;22.40;58.10;;;;;;5036490;28;20037;-50
2022/10/29 01:10:47;;;;;;;5.47;2.17;;;22.40;58.10;;;;;;5034727;28;20417;-46
2022/10/29 01:13:41;;;;;;;5.75;2.85;;;22.40;58.10;;;;;;5036570;28;20033;-46
2022/10/29 01:16:10;;;;;;;7.00;2.33;;;22.40;58.10;;;;;;5047349;28;20049;-44
2022/10/29 01:19:14;;;;;;;5.68;2.30;;;22.40;58.10;;;;;;5053687;28;20116;-45
2022/10/29 01:21:53;;;;;;;4.68;2.30;;;22.40;58.10;;;;;;5013960;28;20380;-47
2022/10/29 01:24:47;;;;;;;6.15;2.08;;;22.30;58.00;;;;;;5036645;28;20037;-47
2022/10/29 01:27:55;;;;;;;5.53;2.38;;;22.40;58.00;;;;;;5046319;28;20041;-48
2022/10/29 01:30:27;;;;;;;4.82;2.35;;;22.30;57.90;;;;;;5044212;28;20474;-51
2022/10/29 01:32:55;;;;;;;4.95;2.28;;;22.30;57.90;;;;;;5053928;28;20029;-46
2022/10/29 01:35:41;;;;;;;5.93;2.50;;;22.30;57.90;;;;;;5055828;28;20131;-45
2022/10/29 01:38:41;;;;;;;3.85;1.77;;;22.30;57.90;;;;;;5052482;28;20033;-46
2022/10/29 01:41:45;;;;;;;3.63;1.63;;;22.30;57.90;;;;;;5052939;28;20036;-47
2022/10/29 01:44:17;;;;;;;6.85;2.08;;;22.30;57.90;;;;;;5035284;28;20349;-46
2022/10/29 01:46:53;;;;;;;6.47;2.42;;;22.30;57.90;;;;;;5041257;28;20099;-48
2022/10/29 01:49:42;;;;;;;5.60;2.00;;;22.30;57.80;;;;;;5055372;28;20100;-47
2022/10/29 01:52:12;;;;;;;4.35;1.98;;;22.30;57.80;;;;;;5055302;28;20144;-48
2022/10/29 01:54:42;;;;;;;5.50;1.95;;;22.30;57.80;;;;;;5042150;28;20052;-48
2022/10/29 01:57:29;;;;;;;4.60;2.13;;;22.30;57.80;;;;;;5053698;28;20112;-47
2022/10/29 02:00:05;;;;;;;3.53;1.92;;;22.30;57.80;;;;;;5055801;28;20080;-46
2022/10/29 02:02:58;;;;;;;4.68;1.98;;;22.30;57.80;;;;;;5055327;28;20067;-47
2022/10/29 02:05:27;;;;;;;2.83;1.60;;;22.30;57.80;;;;;;5054350;28;20087;-47
2022/10/29 02:08:31;;;;;;;4.13;2.33;;;22.30;57.70;;;;;;5053892;28;20116;-48
2022/10/29 02:11:06;;;;;;;3.75;1.60;;;22.30;57.70;;;;;;5054666;28;20107;-52
2022/10/29 02:13:37;;;;;;;4.75;2.20;;;22.20;57.60;;;;;;5055516;28;20098;-46
2022/10/29 02:16:05;;;;;;;4.20;2.15;;;22.20;57.60;;;;;;5054381;28;20052;-51
2022/10/29 02:18:42;;;;;;;4.78;2.03;;;22.20;57.60;;;;;;5054818;28;20021;-47
2022/10/29 02:21:08;;;;;;;5.45;2.22;;;22.20;57.60;;;;;;5054667;28;20445;-48
2022/10/29 02:23:34;;;;;;;4.80;2.15;;;22.20;57.60;;;;;;5035216;28;20113;-47
2022/10/29 02:26:00;;;;;;;4.72;2.17;;;22.20;57.60;;;;;;5035545;28;20103;-49
2022/10/29 02:28:26;;;;;;;4.38;2.28;;;22.20;57.60;;;;;;5054470;28;20076;-46
2022/10/29 02:30:51;;;;;;;4.15;2.10;;;22.20;57.60;;;;;;5042146;28;20030;-47
2022/10/29 02:33:17;;;;;;;4.13;2.00;;;22.20;57.60;;;;;;5036875;28;20041;-50
2022/10/29 02:35:43;;;;;;;4.28;2.20;;;22.20;57.60;;;;;;5054343;28;20031;-49
2022/10/29 02:38:09;;;;;;;4.82;2.13;;;22.20;57.60;;;;;;5054563;28;20087;-47
2022/10/29 02:40:34;;;;;;;4.25;2.05;;;22.20;57.60;;;;;;5054607;28;20037;-46
2022/10/29 02:43:00;;;;;;;3.45;1.80;;;22.20;57.60;;;;;;5051520;28;20039;-45
2022/10/29 02:45:26;;;;;;;3.47;2.08;;;22.20;57.60;;;;;;5046180;28;20415;-49
2022/10/29 02:47:52;;;;;;;3.58;2.22;;;22.20;57.60;;;;;;5053364;28;20069;-47
2022/10/29 02:50:17;;;;;;;3.38;2.00;;;22.20;57.60;;;;;;5053583;28;20067;-46
2022/10/29 02:52:43;;;;;;;3.58;1.70;;;22.20;57.60;;;;;;5053757;28;20021;-46
2022/10/29 02:55:09;;;;;;;4.45;1.90;;;22.20;57.60;;;;;;5054580;28;20039;-47
2022/10/29 02:57:35;;;;;;;3.63;1.90;;;22.20;57.60;;;;;;5043871;28;20025;-47
2022/10/29 03:00:01;;;;;;;4.50;1.80;;;22.20;57.60;;;;;;5034023;28;20065;-44
2022/10/29 03:02:26;;;;;;;2.95;1.80;;;22.10;57.50;;;;;;5051363;28;20441;-47
2022/10/29 03:04:52;;;;;;;3.30;1.80;;;22.20;58.20;;;;;;5054582;28;20070;-51
2022/10/29 03:07:18;;;;;;;3.83;1.83;;;22.10;57.60;;;;;;5051548;28;20045;-49
2022/10/29 03:09:44;;;;;;;3.05;1.80;;;22.10;57.50;;;;;;5040927;28;20029;-47
2022/10/29 03:12:09;;;;;;;2.20;1.38;;;22.10;57.60;;;;;;5054248;28;20513;-45
2022/10/29 03:14:35;;;;;;;3.67;1.75;;;22.10;57.60;;;;;;5050913;28;20029;-46
2022/10/29 03:17:01;;;;;;;3.33;1.55;;;22.10;57.60;;;;;;5034117;28;20365;-46
2022/10/29 03:19:27;;;;;;;2.00;1.60;;;22.10;57.60;;;;;;5034028;28;20091;-47
2022/10/29 03:21:53;;;;;;;2.00;1.58;;;22.10;57.60;;;;;;5033513;28;20105;-45
2022/10/29 03:24:18;;;;;;;3.80;1.70;;;22.10;57.50;;;;;;5034235;28;20405;-49
2022/10/29 03:26:44;;;;;;;3.83;1.85;;;22.10;57.50;;;;;;5034270;28;20048;-46
2022/10/29 03:29:10;;;;;;;3.58;1.83;;;22.10;57.50;;;;;;5032835;28;20037;-46
2022/10/29 03:31:36;;;;;;;3.05;1.80;;;22.10;57.50;;;;;;5033592;28;20029;-46
2022/10/29 03:34:01;;;;;;;3.20;1.73;;;22.10;57.50;;;;;;5034279;28;20040;-47
2022/10/29 03:36:27;;;;;;;1.90;1.50;;;22.10;57.50;;;;;;5017052;28;20112;-46
2022/10/29 03:38:53;;;;;;;3.05;1.95;;;22.10;57.60;;;;;;5034131;28;20029;-47
2022/10/29 03:41:19;;;;;;;3.30;1.90;;;22.10;57.60;;;;;;5034389;28;20034;-46
2022/10/29 03:43:45;;;;;;;3.40;1.80;;;22.10;57.60;;;;;;5031509;28;20057;-47
2022/10/29 03:46:10;;;;;;;3.35;1.77;;;22.10;57.60;;;;;;5034124;28;20051;-47
2022/10/29 03:48:36;;;;;;;3.20;1.90;;;22.10;57.70;;;;;;5034262;28;20445;-48
2022/10/29 03:51:07;;;;;;;3.42;2.08;;;22.10;57.70;;;;;;5033995;28;20029;-48
2022/10/29 03:53:35;;;;;;;3.03;1.88;;;22.10;57.70;;;;;;5033400;28;20063;-47
2022/10/29 03:56:01;;;;;;;4.57;2.35;;;22.10;57.60;;;;;;5033457;28;20931;-49
2022/10/29 03:58:27;;;;;;;3.38;1.98;;;22.00;57.60;;;;;;5034423;28;20029;-49
2022/10/29 04:01:05;;;;;;;3.60;1.60;;;22.00;57.60;;;;;;5034807;28;20303;-45
2022/10/29 04:03:32;;;;;;;3.28;2.33;;;22.00;57.60;;;;;;5034323;28;20048;-47
2022/10/29 04:06:00;;;;;;;3.40;1.77;;;22.00;57.60;;;;;;5037891;28;20148;-47
2022/10/29 04:08:26;;;;;;;2.95;1.73;;;22.00;57.70;;;;;;5036847;28;20059;-49
2022/10/29 04:10:52;;;;;;;2.53;1.98;;;22.00;57.70;;;;;;5037693;28;20044;-46
2022/10/29 04:13:19;;;;;;;3.28;1.67;;;22.00;57.70;;;;;;5036974;28;20080;-46
2022/10/29 04:15:45;;;;;;;3.58;1.88;;;22.00;57.70;;;;;;5045357;28;20049;-50
2022/10/29 04:18:12;;;;;;;3.47;1.67;;;22.00;57.70;;;;;;5054902;28;20037;-46
2022/10/29 04:20:39;;;;;;;2.42;1.88;;;22.00;57.70;;;;;;5057254;28;20040;-49
2022/10/29 04:23:05;;;;;;;2.20;1.58;;;22.00;57.70;;;;;;5054122;28;20340;-48
2022/10/29 04:25:31;;;;;;;2.53;1.75;;;22.00;57.70;;;;;;5057770;28;20024;-48
2022/10/29 04:27:56;;;;;;;2.35;1.75;;;22.00;57.70;;;;;;5057664;28;20045;-49
2022/10/29 04:30:23;;;;;;;2.22;1.65;;;22.00;57.70;;;;;;5048067;28;20452;-49
2022/10/29 04:32:49;;;;;;;2.78;1.85;;;22.00;57.20;;;;;;5054419;28;20131;-50
2022/10/29 04:35:15;;;;;;;3.35;1.92;;;22.00;57.70;;;;;;5057076;28;20815;-48
2022/10/29 04:37:41;;;;;;;2.47;1.70;;;22.00;57.80;;;;;;5051800;28;20116;-50
2022/10/29 04:40:07;;;;;;;3.08;1.77;;;22.00;57.80;;;;;;5057364;28;20025;-48
2022/10/29 04:42:37;;;;;;;6.03;1.92;;;22.00;57.80;;;;;;5053471;28;20326;-49
2022/10/29 04:45:05;;;;;;;2.58;1.90;;;21.90;57.70;;;;;;5057240;28;20029;-49
2022/10/29 04:47:31;;;;;;;3.22;2.00;;;22.00;57.80;;;;;;5056135;28;20059;-48
2022/10/29 04:49:56;;;;;;;3.47;2.10;;;21.90;57.80;;;;;;5057028;28;20025;-48
2022/10/29 04:52:23;;;;;;;3.03;2.00;;;21.90;57.80;;;;;;5055208;28;20037;-45
2022/10/29 04:54:48;;;;;;;2.92;1.77;;;22.00;57.90;;;;;;5054861;28;20029;-47
2022/10/29 04:57:14;;;;;;;3.85;1.95;;;22.00;57.90;;;;;;5055989;28;20040;-46
2022/10/29 04:59:40;;;;;;;2.45;1.80;;;22.00;57.90;;;;;;5056635;28;20452;-48
2022/10/29 05:02:06;;;;;;;3.88;1.90;;;22.00;57.90;;;;;;5055295;28;20463;-45
2022/10/29 05:04:32;;;;;;;2.60;1.77;;;21.90;57.80;;;;;;5056701;28;20033;-47
2022/10/29 05:06:57;;;;;;;3.35;2.03;;;21.90;57.80;;;;;;5056319;28;20037;-46
2022/10/29 05:09:23;;;;;;;4.45;2.28;;;21.90;57.90;;;;;;5056575;28;20029;-48
2022/10/29 05:11:49;;;;;;;2.97;2.13;;;22.00;57.90;;;;;;5055170;28;20025;-50
2022/10/29 05:14:15;;;;;;;3.47;2.20;;;22.00;58.00;;;;;;5054891;28;20519;-52
2022/10/29 05:16:40;;;;;;;2.58;1.90;;;21.90;58.50;;;;;;5055510;28;20080;-48
2022/10/29 05:19:06;;;;;;;2.67;1.98;;;21.90;57.90;;;;;;5040713;28;20037;-49
2022/10/29 05:21:32;;;;;;;3.13;2.58;;;21.90;57.90;;;;;;5037758;28;20068;-46
2022/10/29 05:23:58;;;;;;;4.72;2.10;;;22.00;58.00;;;;;;5056403;28;20033;-47
2022/10/29 05:26:24;;;;;;;3.08;2.22;;;21.90;57.90;;;;;;5056162;28;20037;-46
2022/10/29 05:28:50;;;;;;;3.80;2.17;;;21.90;58.00;;;;;;5056291;28;20045;-46
2022/10/29 05:31:16;;;;;;;3.33;1.90;;;21.90;58.10;;;;;;5055724;28;20396;-47
2022/10/29 05:33:42;;;;;;;5.75;2.17;;;21.90;58.10;;;;;;5053443;28;20079;-46
2022/10/29 05:36:08;;;;;;;3.25;2.20;;;21.90;58.20;;;;;;5055543;28;20115;-47
2022/10/29 05:38:34;;;;;;;3.67;2.22;;;21.90;58.20;;;;;;5053405;28;20040;-46
2022/10/29 05:41:00;;;;;;;8.60;2.25;;;21.90;58.30;;;;;;5056266;28;20029;-45
2022/10/29 05:43:26;;;;;;;4.20;2.60;;;21.90;58.30;;;;;;5054926;28;20017;-48
2022/10/29 05:45:52;;;;;;;3.38;2.08;;;21.90;58.40;;;;;;5050740;28;20146;-46
2022/10/29 05:48:18;;;;;;;3.17;2.03;;;21.90;58.30;;;;;;5049755;28;20041;-47
2022/10/29 05:50:44;;;;;;;3.95;2.53;;;21.90;58.30;;;;;;5056034;28;20021;-46
2022/10/29 05:53:12;;;;;;;3.53;2.17;;;21.90;58.40;;;;;;5055971;28;20032;-47
2022/10/29 05:55:39;;;;;;;2.35;1.85;;;21.90;58.40;;;;;;5055649;28;20503;-49
2022/10/29 05:58:09;;;;;;;3.63;2.47;;;21.90;58.30;;;;;;5050931;28;20346;-47
2022/10/29 06:00:37;;;;;;;3.10;1.95;;;21.90;58.30;;;;;;5054740;28;20064;-47
2022/10/29 06:03:03;;;;;;;4.45;2.28;;;21.90;58.30;;;;;;5038724;28;20033;-49
2022/10/29 06:05:29;;;;;;;3.00;2.15;;;21.90;58.40;;;;;;5035000;28;20090;-46
2022/10/29 06:07:58;;;;;;;3.78;2.40;;;21.90;58.40;;;;;;5047185;28;20114;-47
2022/10/29 06:10:25;;;;;;;5.07;2.58;;;21.90;58.40;;;;;;5055497;28;20064;-46
2022/10/29 06:12:51;;;;;;;2.55;1.83;;;21.90;58.40;;;;;;5055360;28;20037;-50
2022/10/29 06:15:17;;;;;;;3.55;2.00;;;21.90;58.40;;;;;;5054732;28;20053;-46
2022/10/29 06:17:44;;;;;;;4.43;2.20;;;21.90;58.50;;;;;;5050236;28;20033;-47
2022/10/29 06:20:12;;;;;;;3.50;2.25;;;21.90;58.50;;;;;;5053985;28;20041;-48
2022/10/29 06:22:38;;;;;;;3.83;2.53;;;21.90;58.50;;;;;;5054672;28;20461;-48
2022/10/29 06:25:04;;;;;;;5.40;2.72;;;21.80;58.50;;;;;;5055063;28;20025;-48
2022/10/29 06:27:30;;;;;;;4.55;2.72;;;21.90;58.60;;;;;;5053239;28;20114;-46
2022/10/29 06:29:56;;;;;;;6.78;3.00;;;21.90;58.60;;;;;;5054157;28;20033;-48
2022/10/29 06:32:22;;;;;;;5.97;2.60;;;21.90;58.70;;;;;;5055115;28;20064;-47
2022/10/29 06:34:47;;;;;;;4.35;2.30;;;21.90;58.80;;;;;;5053598;28;20082;-50
2022/10/29 06:37:13;;;;;;;5.40;2.80;;;21.90;58.90;;;;;;5053189;28;20037;-47
2022/10/29 06:39:39;;;;;;;4.05;2.40;;;21.90;59.00;;;;;;5037159;28;20041;-46
2022/10/29 06:42:05;;;;;;;5.00;2.40;;;21.80;58.90;;;;;;5053895;28;20040;-47
2022/10/29 06:44:31;;;;;;;4.70;2.53;;;21.90;59.00;;;;;;5054862;28;20028;-49
2022/10/29 06:46:57;;;;;;;3.53;2.17;;;21.80;59.00;;;;;;5053647;28;20075;-47
2022/10/29 06:49:23;;;;;;;4.60;2.13;;;21.80;59.00;;;;;;5045690;28;20108;-48
2022/10/29 06:51:48;;;;;;;4.90;2.90;;;21.80;59.00;;;;;;5050459;28;20364;-46
2022/10/29 06:54:14;;;;;;;4.20;2.60;;;21.80;59.00;;;;;;5054827;28;20036;-48
2022/10/29 06:56:40;;;;;;;4.82;2.30;;;21.90;59.00;;;;;;5054001;28;20099;-45
2022/10/29 06:59:06;;;;;;;5.95;2.58;;;21.90;59.00;;;;;;5054623;28;20029;-48
2022/10/29 07:01:32;;;;;;;4.45;2.53;;;21.80;58.90;;;;;;5046275;28;20052;-46
2022/10/29 07:03:58;;;;;;;3.33;2.38;;;21.90;59.00;;;;;;5051496;28;20048;-45
2022/10/29 07:06:25;;;;;;;4.68;2.63;;;21.80;58.90;;;;;;5054477;28;20048;-48
2022/10/29 07:08:51;;;;;;;4.85;2.20;;;21.90;59.00;;;;;;5051516;28;20080;-45
2022/10/29 07:11:16;;;;;;;4.93;2.40;;;21.80;58.90;;;;;;5047916;28;20053;-46
2022/10/29 07:13:42;;;;;;;4.00;2.47;;;21.90;59.50;;;;;;5053973;28;20083;-48
2022/10/29 07:16:08;;;;;;;4.85;2.83;;;21.80;58.90;;;;;;5053694;28;20057;-47
2022/10/29 07:18:34;;;;;;;3.80;2.50;;;21.80;58.90;;;;;;5043497;28;20472;-50
2022/10/29 07:21:02;;;;;;;4.35;2.63;;;21.90;59.00;;;;;;5044176;28;20037;-47
2022/10/29 07:23:28;;;;;;;6.32;2.70;;;21.80;59.00;;;;;;5053734;28;20063;-51
2022/10/29 07:25:54;;;;;;;5.43;2.67;;;21.80;59.00;;;;;;5054365;28;20025;-49
2022/10/29 07:28:22;;;;;;;6.68;3.10;;;21.80;59.20;;;;;;5050546;28;20054;-49
2022/10/29 07:30:49;;;;;;;6.13;3.13;;;21.90;59.30;;;;;;5051016;28;20025;-47
2022/10/29 07:33:16;;;;;;;6.07;3.42;;;21.80;59.20;;;;;;5053449;28;20607;-48
2022/10/29 07:35:43;;;;;;;4.10;2.33;;;21.90;59.40;;;;;;5050421;28;20124;-48
2022/10/29 07:38:11;;;;;;;4.55;2.42;;;21.90;59.50;;;;;;5049296;28;20029;-50
2022/10/29 07:40:39;;;;;;;5.68;3.00;;;21.80;59.50;;;;;;5049884;28;20086;-47
2022/10/29 07:43:05;;;;;;;5.43;2.60;;;21.90;59.60;;;;;;5057542;28;20044;-47
2022/10/29 07:45:31;;;;;;;4.50;2.47;;;21.80;59.60;;;;;;5058324;28;20102;-46
2022/10/29 07:48:01;;;;;;;4.78;2.90;;;21.90;59.70;;;;;;5049199;28;20034;-45
2022/10/29 07:50:28;;;;;;;6.65;3.13;;;21.90;59.90;;;;;;5039978;28;20025;-49
2022/10/29 07:52:53;;;;;;;4.47;2.70;;;21.90;60.00;;;;;;5055461;28;20039;-48
2022/10/29 07:55:19;;;;;;;3.70;2.78;;;21.90;60.00;;;;;;5057609;28;20338;-45
2022/10/29 07:57:45;;;;;;;3.78;2.50;;;21.90;60.00;;;;;;5051174;28;20096;-50
2022/10/29 08:00:13;;;;;;;4.90;2.75;;;21.90;60.10;;;;;;5052647;28;20710;-49
2022/10/29 08:02:41;;;;;;;5.78;2.90;;;21.90;60.50;;;;;;5051916;28;20037;-47
2022/10/29 08:05:07;;;;;;;5.63;3.40;;;21.90;60.50;;;;;;5053353;28;20040;-47
2022/10/29 08:07:33;;;;;;;5.72;3.50;;;22.00;60.50;;;;;;5051853;28;20036;-48
2022/10/29 08:09:59;;;;;;;5.75;3.47;;;21.90;60.30;;;;;;5052331;28;20112;-46
2022/10/29 08:12:24;;;;;;;6.32;3.25;;;22.00;60.40;;;;;;5052523;28;20042;-48
2022/10/29 08:14:50;;;;;;;5.93;3.70;;;22.00;60.30;;;;;;5056793;28;20087;-45
2022/10/29 08:17:16;;;;;;;5.35;3.20;;;22.00;60.30;;;;;;5068240;28;20036;-47
2022/10/29 08:19:42;;;;;;;5.10;3.22;;;22.00;60.30;;;;;;5038754;28;20044;-47
2022/10/29 08:22:08;;;;;;;7.13;3.17;;;22.00;60.30;;;;;;5048631;28;20040;-46
2022/10/29 08:24:33;;;;;;;7.82;3.05;;;22.10;60.30;;;;;;5057527;28;20412;-48
2022/10/29 08:26:59;;;;;;;7.32;3.10;;;22.00;60.30;;;;;;5052422;28;20021;-48
2022/10/29 08:29:27;;;;;;;6.57;3.10;;;22.00;60.20;;;;;;5052675;28;20341;-45
2022/10/29 08:31:58;;;;;;;5.63;3.70;;;22.00;60.20;;;;;;5053481;28;20037;-46
2022/10/29 08:34:24;;;;;;;5.10;3.17;;;22.10;60.30;;;;;;5049602;28;20048;-49
2022/10/29 08:36:50;;;;;;;5.90;3.30;;;22.10;60.30;;;;;;5048942;28;20037;-51
2022/10/29 08:39:16;;;;;;;6.72;3.20;;;22.10;60.20;;;;;;5050326;28;20040;-50
2022/10/29 08:42:21;;;;;;;6.57;3.58;;;22.10;60.20;;;;;;5051594;28;20083;-49
2022/10/29 08:45:02;;;;;;;;;;;22.10;60.10;;;;;;5050054;28;20029;-51
2022/10/29 08:47:40;;;;;;;8.45;3.28;;;22.10;60.10;;;;;;5037844;28;20020;-47
2022/10/29 08:50:27;;;;;;;5.18;3.08;;;22.10;60.10;;;;;;5044695;28;20044;-52
2022/10/29 08:52:54;;;;;;;6.07;3.20;;;22.10;60.20;;;;;;5048781;28;20036;-49
2022/10/29 08:55:28;;;;;;;6.13;3.25;;;22.10;60.30;;;;;;5049354;28;20359;-53
2022/10/29 08:57:58;;;;;;;6.80;3.25;;;22.10;60.30;;;;;;5051809;28;20048;-49
2022/10/29 09:00:37;;;;;;;6.50;3.13;;;22.10;60.30;;;;;;5049987;28;20439;-48
2022/10/29 09:03:10;;;;;;;5.68;3.22;;;22.20;60.60;;;;;;5049107;28;20025;-52
2022/10/29 09:05:52;;;;;;;5.28;3.53;;;22.20;60.60;;;;;;5050183;28;20099;-53
2022/10/29 09:08:37;;;;;;;4.78;2.90;;;22.20;60.60;;;;;;5049775;28;20080;-54
2022/10/29 09:11:32;;;;;;;5.50;2.90;;;22.20;60.60;;;;;;5048956;28;20036;-51
2022/10/29 09:13:57;;;;;;;;;;;22.20;60.40;;;;;;5049877;28;20033;-47
2022/10/29 09:16:31;;;;;;;5.35;3.13;;;22.20;60.40;;;;;;5048603;28;19925;-49
2022/10/29 09:19:25;;;;;;;5.35;3.17;;;22.20;60.40;;;;;;5046685;28;20028;-53
2022/10/29 09:22:13;;;;;;;5.75;3.20;;;22.20;60.30;;;;;;5050134;28;20040;-52
2022/10/29 09:25:08;;;;;;;4.20;3.50;;;22.20;60.30;;;;;;5047004;28;20036;-53
2022/10/29 09:27:52;;;;;;;6.13;3.35;;;22.20;60.30;;;;;;5049684;28;20518;-51
2022/10/29 09:30:19;;;;;;;4.82;3.00;;;22.20;60.30;;;;;;5048533;28;20021;-52
2022/10/29 09:33:07;;;;;;;5.75;3.45;;;22.20;60.40;;;;;;5053200;28;20045;-47
2022/10/29 09:35:40;;;;;;;7.10;3.25;;;22.20;60.50;;;;;;5048875;28;20083;-46
2022/10/29 09:38:44;;;;;;;7.07;3.33;;;22.20;60.50;;;;;;5046890;28;21476;-46
2022/10/29 09:41:11;;;;;;;6.00;2.90;;;22.30;60.60;;;;;;5028192;28;20368;-47
2022/10/29 09:43:55;;;;;;;6.55;3.70;;;22.30;60.50;;;;;;5048846;28;20040;-51
2022/10/29 09:46:38;;;;;;;5.85;2.95;;;22.30;60.40;;;;;;5047311;28;20461;-46
2022/10/29 09:49:41;;;;;;;4.45;3.10;;;22.30;60.40;;;;;;5037212;28;20045;-48
2022/10/29 09:52:18;;;;;;;7.20;3.65;;;22.30;60.40;;;;;;5049600;28;20028;-46
2022/10/29 09:54:44;;;;;;;5.50;3.65;;;22.30;60.40;;;;;;5048409;28;20056;-53
2022/10/29 09:57:18;;;;;;;5.97;3.05;;;22.30;60.40;;;;;;5047960;28;20112;-47
2022/10/29 09:59:48;;;;;;;5.03;3.05;;;22.30;60.40;;;;;;5048562;28;20092;-48
2022/10/29 10:02:36;;;;;;;6.22;3.28;;;22.30;60.40;;;;;;5048058;28;20383;-51
2022/10/29 10:05:12;;;;;;;4.20;2.83;;;22.30;60.60;;;;;;5048495;28;20056;-48
2022/10/29 10:07:39;;;;;;;4.75;2.58;;;22.30;60.60;;;;;;5046321;28;20049;-48
2022/10/29 10:10:25;;;;;;;5.07;3.35;;;22.30;60.70;;;;;;5048855;28;20030;-48
2022/10/29 10:12:51;;;;;;;6.57;2.95;;;22.30;60.70;;;;;;5039299;28;20084;-48
2022/10/29 10:15:29;;;;;;;4.93;3.17;;;22.40;60.80;;;;;;5049393;28;20052;-48
2022/10/29 10:18:15;;;;;;;5.78;3.25;;;22.40;60.90;;;;;;5047005;28;20117;-49
2022/10/29 10:20:45;;;;;;;6.97;3.13;;;22.40;60.80;;;;;;5048019;28;20025;-50
2022/10/29 10:23:51;;;;;;;6.53;3.10;;;22.40;61.10;;;;;;5048483;28;20044;-48
2022/10/29 10:26:41;;;;;;;3.53;3.05;;;22.40;61.20;;;;;;5048441;28;20995;-52
2022/10/29 10:29:26;;;;;;;7.28;3.17;;;22.40;61.20;;;;;;5047104;28;20041;-54
2022/10/29 10:31:54;;;;;;;8.27;3.60;;;22.40;61.30;;;;;;5042419;28;20112;-54
2022/10/29 10:34:22;;;;;;;4.80;3.22;;;22.40;61.20;;;;;;5047316;28;20039;-47
2022/10/29 10:37:08;;;;;;;6.55;3.17;;;22.40;61.40;;;;;;5047520;28;20083;-51
2022/10/29 10:39:41;;;;;;;6.82;3.20;;;22.40;61.60;;;;;;5046266;28;20329;-54
2022/10/29 10:42:26;;;;;;;7.15;3.70;;;22.40;61.60;;;;;;5049289;28;20021;-53
2022/10/29 10:44:59;;;;;;;7.07;3.30;;;22.40;61.40;;;;;;5048755;28;20024;-51
2022/10/29 10:47:29;;;;;;;5.38;3.03;;;22.50;61.40;;;;;;5050080;28;20337;-53
2022/10/29 10:50:21;;;;;;;5.65;3.50;;;22.50;61.20;;;;;;5048749;28;20017;-51
2022/10/29 10:52:48;;;;;;;6.63;3.40;;;22.50;61.10;;;;;;5041710;28;20116;-50
2022/10/29 10:55:25;;;;;;;8.52;3.47;;;22.50;61.00;;;;;;5049101;28;20468;-51
2022/10/29 10:58:04;;;;;;;6.47;3.47;;;22.60;60.90;;;;;;5047022;28;20036;-53
2022/10/29 11:00:39;;;;;;;5.53;3.28;;;22.60;60.80;;;;;;5045054;28;20036;-51
2022/10/29 11:03:08;;;;;;;7.35;3.00;;;22.60;60.70;;;;;;5043937;28;20452;-52
2022/10/29 11:05:42;;;;;;;6.28;3.67;;;22.60;60.70;;;;;;5044819;28;20524;-53
2022/10/29 11:08:23;;;;;;;5.65;3.35;;;22.60;60.70;;;;;;5046957;28;20102;-54
2022/10/29 11:11:04;;;;;;;4.75;3.10;;;22.60;60.50;;;;;;5049655;28;20056;-51
2022/10/29 11:13:33;;;;;;;5.90;3.47;;;22.60;60.50;;;;;;5051111;28;20021;-51
2022/10/29 11:16:19;;;;;;;5.05;3.40;;;22.60;60.50;;;;;;5042706;28;20049;-54
2022/10/29 11:18:52;;;;;;;5.22;3.00;;;22.60;60.40;;;;;;5049612;28;20389;-54
2022/10/29 11:21:23;;;;;;;8.32;3.67;;;22.60;60.40;;;;;;5052975;28;20041;-52
2022/10/29 11:23:52;;;;;;;7.60;3.15;;;22.60;60.30;;;;;;5051840;28;20444;-55
2022/10/29 11:26:31;;;;;;;5.95;3.17;;;22.60;60.20;;;;;;5054031;28;20432;-52
2022/10/29 11:29:19;;;;;;;8.20;3.10;;;22.60;60.10;;;;;;5048131;28;20056;-53
2022/10/29 11:32:15;;;;;;;4.40;2.80;;;22.70;60.20;;;;;;5051793;28;20048;-52
2022/10/29 11:34:56;;;;;;;8.75;3.38;;;22.70;60.60;;;;;;5053503;28;20032;-55
2022/10/29 11:37:38;;;;;;;6.32;3.22;;;22.70;60.70;;;;;;5051940;28;20028;-55
2022/10/29 11:40:46;;;;;;;8.38;3.65;;;22.70;60.90;;;;;;5051811;28;20025;-54
2022/10/29 11:43:16;;;;;;;6.35;3.15;;;22.70;60.90;;;;;;5052322;28;20119;-55
2022/10/29 11:46:16;;;;;;;6.43;2.75;;;22.80;61.00;;;;;;5048399;28;20071;-52
2022/10/29 11:48:47;;;;;;;7.13;3.38;;;22.80;60.90;;;;;;5050435;28;20136;-60
2022/10/29 11:51:23;;;;;;;5.90;2.92;;;22.80;60.90;;;;;;5052283;28;20068;-56
2022/10/29 11:54:13;;;;;;;8.13;3.25;;;22.80;60.90;;;;;;5060799;28;20444;-57
2022/10/29 11:56:51;;;;;;;5.97;3.08;;;22.90;60.90;;;;;;5050709;28;20094;-60
2022/10/29 11:59:17;;;;;;;9.18;3.20;;;22.90;60.80;;;;;;5049701;28;20033;-62
2022/10/29 12:01:48;;;;;;;6.03;2.80;;;23.00;60.70;;;;;;5051615;28;20025;-58
2022/10/29 12:04:31;;;;;;;6.82;2.65;;;23.10;60.60;;;;;;5051829;28;20029;-57
2022/10/29 12:07:28;;;;;;;5.00;2.55;;;23.20;60.50;;;;;;5052458;28;20456;-58
2022/10/29 12:10:00;;;;;;;4.32;2.60;;;23.30;60.10;;;;;;5050913;28;20029;-60
2022/10/29 12:12:44;;;;;;;6.68;2.95;;;23.40;59.70;;;;;;5051654;28;20021;-54
2022/10/29 12:15:26;;;;;;;4.53;2.80;;;23.50;59.40;;;;;;5052209;28;20056;-55
2022/10/29 12:18:10;;;;;;;4.35;2.42;;;23.60;59.00;;;;;;5053074;28;20063;-54
2022/10/29 12:20:59;;;;;;;3.87;2.10;;;23.70;58.70;;;;;;5051879;28;20468;-53
2022/10/29 12:23:59;;;;;;;4.43;2.58;;;23.80;58.40;;;;;;5049191;28;20287;-57
2022/10/29 12:26:43;;;;;;;6.55;2.95;;;24.00;58.10;;;;;;5051783;28;20025;-57
2022/10/29 12:29:27;;;;;;;6.72;3.08;;;24.10;57.80;;;;;;5051043;28;20045;-54
2022/10/29 12:32:20;;;;;;;5.63;2.72;;;24.10;57.60;;;;;;5048388;28;20020;-53
2022/10/29 12:35:01;;;;;;;6.45;3.13;;;24.20;57.50;;;;;;5050503;28;20028;-59
2022/10/29 12:37:27;;;;;;;4.95;2.60;;;24.20;57.20;;;;;;5049841;28;20049;-56
2022/10/29 12:39:59;;;;;;;5.35;2.75;;;24.30;57.20;;;;;;5051787;28;20067;-58
2022/10/29 12:42:28;;;;;;;5.55;2.72;;;24.30;57.10;;;;;;5050400;28;20033;-56
2022/10/29 12:45:05;;;;;;;6.50;3.13;;;24.30;57.10;;;;;;5049998;28;20041;-55
2022/10/29 12:48:05;;;;;;;6.75;2.95;;;24.40;57.10;;;;;;5050905;28;20329;-55
2022/10/29 12:50:47;;;;;;;5.63;2.85;;;24.40;56.90;;;;;;5044640;28;20052;-57
2022/10/29 12:53:12;;;;;;;4.72;2.38;;;24.50;57.00;;;;;;5049819;28;20029;-57
2022/10/29 12:55:41;;;;;;;7.45;2.63;;;24.50;57.10;;;;;;5049166;28;20036;-62
2022/10/29 12:58:47;;;;;;;6.88;2.70;;;24.50;57.20;;;;;;5050229;28;20051;-58
2022/10/29 13:01:25;;;;;;;5.68;2.70;;;24.60;57.30;;;;;;5048816;28;20052;-55
2022/10/29 13:03:53;;;;;;;8.18;2.70;;;24.70;57.30;;;;;;5046469;28;20028;-49
2022/10/29 13:06:42;;;;;;;9.38;2.80;;;24.70;57.30;;;;;;5050975;28;20025;-47
2022/10/29 13:09:21;;;;;;;7.35;3.15;;;24.80;57.20;;;;;;5047267;28;20482;-54
2022/10/29 13:11:56;;;;;;;5.53;3.20;;;24.90;57.10;;;;;;5050928;28;20037;-54
2022/10/29 13:14:32;;;;;;;4.78;2.83;;;24.90;57.00;;;;;;5047998;28;20040;-54